OCN452 EDDM-LEPA
Flight info
| Callsign | OCN452 |
|---|---|
| Flight time | 2h 7m |
| Altitude | 37000 |
| Route | TURBU Y107 TOBSO DCT BAKOR DCT SUMIR DCT MISPO DCT PIDAD DCT TALEP DCT RARQU DCT BALEN UT250 RIXOT |
| Aircraft | A320/M-SDE3FGHIRWY/LB1 |
Departure
| Time | 2026-05-06 13:31 |
|---|---|
| Airport | Munich Airport (EDDM) |
Arrival
| Time | 2026-05-06 15:38 |
|---|---|
| Airport | Palma de Mallorca Airport (LEPA) |
| Time | Latitude | Longitude | Altitude | Speed | Heading |
|---|---|---|---|---|---|
| 2026-05-06 12:46 | 48.35133 | 11.79358 | 1486 ft | 0 kts | 263° |
| 2026-05-06 13:20 | 48.35136 | 11.79386 | 1474 ft | 4 kts | 263° |
| 2026-05-06 13:20 | 48.35139 | 11.79427 | 1476 ft | 4 kts | 263° |
| 2026-05-06 13:20 | 48.35141 | 11.79459 | 1475 ft | 4 kts | 256° |
| 2026-05-06 13:21 | 48.35152 | 11.79493 | 1479 ft | 4 kts | 215° |
| 2026-05-06 13:21 | 48.35174 | 11.79503 | 1473 ft | 3 kts | 173° |
| 2026-05-06 13:21 | 48.35192 | 11.79499 | 1475 ft | 0 kts | 173° |
| 2026-05-06 13:23 | 48.35169 | 11.79504 | 1472 ft | 7 kts | 173° |
| 2026-05-06 13:23 | 48.35103 | 11.79515 | 1483 ft | 11 kts | 173° |
| 2026-05-06 13:24 | 48.35030 | 11.79528 | 1485 ft | 10 kts | 173° |
| 2026-05-06 13:24 | 48.34958 | 11.79540 | 1480 ft | 13 kts | 173° |
| 2026-05-06 13:24 | 48.34865 | 11.79556 | 1476 ft | 13 kts | 173° |
| 2026-05-06 13:24 | 48.34793 | 11.79525 | 1474 ft | 11 kts | 239° |
| 2026-05-06 13:25 | 48.34776 | 11.79361 | 1485 ft | 21 kts | 263° |
| 2026-05-06 13:25 | 48.34758 | 11.79122 | 1485 ft | 24 kts | 264° |
| 2026-05-06 13:25 | 48.34739 | 11.78868 | 1473 ft | 25 kts | 263° |
| 2026-05-06 13:25 | 48.34718 | 11.78602 | 1481 ft | 26 kts | 263° |
| 2026-05-06 13:26 | 48.34696 | 11.78321 | 1475 ft | 27 kts | 263° |
| 2026-05-06 13:26 | 48.34674 | 11.78031 | 1485 ft | 28 kts | 263° |
| 2026-05-06 13:26 | 48.34651 | 11.77731 | 1472 ft | 29 kts | 263° |
| 2026-05-06 13:26 | 48.34627 | 11.77422 | 1485 ft | 30 kts | 263° |
| 2026-05-06 13:27 | 48.34603 | 11.77115 | 1485 ft | 29 kts | 263° |
| 2026-05-06 13:27 | 48.34580 | 11.76810 | 1475 ft | 30 kts | 263° |
| 2026-05-06 13:27 | 48.34555 | 11.76495 | 1482 ft | 31 kts | 263° |
| 2026-05-06 13:27 | 48.34530 | 11.76170 | 1485 ft | 32 kts | 263° |
| 2026-05-06 13:28 | 48.34505 | 11.75847 | 1474 ft | 30 kts | 263° |
| 2026-05-06 13:28 | 48.34482 | 11.75536 | 1482 ft | 30 kts | 263° |
| 2026-05-06 13:28 | 48.34463 | 11.75286 | 1478 ft | 17 kts | 264° |
| 2026-05-06 13:28 | 48.34412 | 11.75217 | 1483 ft | 10 kts | 178° |
| 2026-05-06 13:29 | 48.34348 | 11.75228 | 1478 ft | 8 kts | 173° |
| 2026-05-06 13:29 | 48.34293 | 11.75238 | 1481 ft | 10 kts | 173° |
| 2026-05-06 13:29 | 48.34195 | 11.75255 | 1482 ft | 16 kts | 173° |
| 2026-05-06 13:29 | 48.34096 | 11.75273 | 1481 ft | 9 kts | 173° |
| 2026-05-06 13:30 | 48.34084 | 11.75295 | 1478 ft | 1 kts | 83° |
| 2026-05-06 13:30 | 48.34104 | 11.75561 | 1485 ft | 61 kts | 83° |
| 2026-05-06 13:30 | 48.34178 | 11.76525 | 1476 ft | 122 kts | 83° |
| 2026-05-06 13:30 | 48.34297 | 11.78045 | 1511 ft | 167 kts | 83° |
| 2026-05-06 13:31 | 48.34420 | 11.79745 | 2261 ft | 161 kts | 84° |
| 2026-05-06 13:31 | 48.34543 | 11.81440 | 2918 ft | 170 kts | 84° |
| 2026-05-06 13:31 | 48.34682 | 11.83315 | 3274 ft | 191 kts | 83° |
| 2026-05-06 13:31 | 48.34841 | 11.85411 | 3606 ft | 213 kts | 84° |
| 2026-05-06 13:32 | 48.35019 | 11.87721 | 4026 ft | 233 kts | 83° |
| 2026-05-06 13:32 | 48.35210 | 11.90187 | 4814 ft | 240 kts | 83° |
| 2026-05-06 13:32 | 48.35401 | 11.92706 | 5619 ft | 246 kts | 88° |
| 2026-05-06 13:32 | 48.35169 | 11.95240 | 6350 ft | 248 kts | 116° |
| 2026-05-06 13:33 | 48.34124 | 11.97279 | 7088 ft | 249 kts | 143° |
| 2026-05-06 13:33 | 48.32749 | 11.98886 | 7928 ft | 252 kts | 145° |
| 2026-05-06 13:33 | 48.31355 | 12.00497 | 8776 ft | 254 kts | 146° |
| 2026-05-06 13:33 | 48.29871 | 12.01925 | 9608 ft | 254 kts | 160° |
| 2026-05-06 13:34 | 48.28167 | 12.02641 | 10214 ft | 262 kts | 176° |
| 2026-05-06 13:34 | 48.26306 | 12.02617 | 10712 ft | 273 kts | 185° |
| 2026-05-06 13:34 | 48.24391 | 12.02482 | 11400 ft | 280 kts | 185° |
| 2026-05-06 13:34 | 48.22364 | 12.02348 | 11655 ft | 303 kts | 185° |
| 2026-05-06 13:35 | 48.20182 | 12.02211 | 11961 ft | 322 kts | 185° |
| 2026-05-06 13:35 | 48.17916 | 12.02079 | 12582 ft | 329 kts | 185° |
| 2026-05-06 13:35 | 48.15612 | 12.01948 | 13312 ft | 332 kts | 185° |
| 2026-05-06 13:35 | 48.13296 | 12.01819 | 14007 ft | 335 kts | 185° |
| 2026-05-06 13:36 | 48.10961 | 12.01692 | 14703 ft | 336 kts | 185° |
| 2026-05-06 13:36 | 48.08618 | 12.01563 | 15411 ft | 338 kts | 185° |
| 2026-05-06 13:36 | 48.06291 | 12.01127 | 16064 ft | 337 kts | 195° |
| 2026-05-06 13:36 | 48.04025 | 12.00182 | 16714 ft | 339 kts | 197° |
| 2026-05-06 13:37 | 48.01744 | 11.99215 | 17362 ft | 342 kts | 197° |
| 2026-05-06 13:37 | 47.99450 | 11.98245 | 18030 ft | 344 kts | 197° |
| 2026-05-06 13:37 | 47.97141 | 11.97271 | 18587 ft | 346 kts | 197° |
| 2026-05-06 13:37 | 47.94814 | 11.96294 | 19143 ft | 348 kts | 197° |
| 2026-05-06 13:38 | 47.92470 | 11.95328 | 19682 ft | 351 kts | 195° |
| 2026-05-06 13:38 | 47.90834 | 11.94914 | 20040 ft | 355 kts | 188° |
| 2026-05-06 13:38 | 47.88352 | 11.94803 | 20569 ft | 359 kts | 184° |
| 2026-05-06 13:38 | 47.85849 | 11.94760 | 21095 ft | 361 kts | 184° |
| 2026-05-06 13:39 | 47.83330 | 11.94713 | 21595 ft | 363 kts | 185° |
| 2026-05-06 13:39 | 47.80827 | 11.94666 | 22075 ft | 366 kts | 185° |
| 2026-05-06 13:39 | 47.78241 | 11.94617 | 22556 ft | 368 kts | 185° |
| 2026-05-06 13:39 | 47.75706 | 11.94569 | 23020 ft | 371 kts | 185° |
| 2026-05-06 13:40 | 47.72236 | 11.94502 | 23603 ft | 375 kts | 185° |
| 2026-05-06 13:40 | 47.70506 | 11.94469 | 23874 ft | 376 kts | 185° |
| 2026-05-06 13:40 | 47.67880 | 11.94421 | 24295 ft | 378 kts | 185° |
| 2026-05-06 13:40 | 47.65208 | 11.94377 | 24759 ft | 380 kts | 185° |
| 2026-05-06 13:41 | 47.62557 | 11.94335 | 25195 ft | 382 kts | 185° |
| 2026-05-06 13:41 | 47.59897 | 11.94296 | 25625 ft | 382 kts | 185° |
| 2026-05-06 13:41 | 47.57223 | 11.94253 | 25976 ft | 386 kts | 186° |
| 2026-05-06 13:41 | 47.54528 | 11.94207 | 26358 ft | 388 kts | 186° |
| 2026-05-06 13:42 | 47.51825 | 11.94156 | 26725 ft | 390 kts | 186° |
| 2026-05-06 13:42 | 47.49102 | 11.94104 | 27091 ft | 392 kts | 186° |
| 2026-05-06 13:42 | 47.46366 | 11.94057 | 27474 ft | 394 kts | 186° |
| 2026-05-06 13:42 | 47.43623 | 11.94003 | 27831 ft | 395 kts | 187° |
| 2026-05-06 13:43 | 47.40904 | 11.93568 | 28174 ft | 393 kts | 192° |
| 2026-05-06 13:43 | 47.38185 | 11.93012 | 28518 ft | 395 kts | 192° |
| 2026-05-06 13:43 | 47.35456 | 11.92461 | 28896 ft | 396 kts | 193° |
| 2026-05-06 13:43 | 47.32713 | 11.91913 | 29211 ft | 399 kts | 193° |
| 2026-05-06 13:44 | 47.29949 | 11.91365 | 29501 ft | 402 kts | 193° |
| 2026-05-06 13:44 | 47.27204 | 11.90826 | 29821 ft | 404 kts | 193° |
| 2026-05-06 13:44 | 47.24410 | 11.90276 | 30137 ft | 406 kts | 193° |
| 2026-05-06 13:44 | 47.21605 | 11.89722 | 30434 ft | 407 kts | 193° |
| 2026-05-06 13:45 | 47.18758 | 11.89159 | 30819 ft | 407 kts | 193° |
| 2026-05-06 13:45 | 47.13205 | 11.88069 | 31653 ft | 398 kts | 193° |
| 2026-05-06 13:45 | 47.10457 | 11.87526 | 31983 ft | 398 kts | 194° |
| 2026-05-06 13:46 | 47.07713 | 11.86976 | 32249 ft | 400 kts | 192° |
| 2026-05-06 13:46 | 47.04966 | 11.86423 | 32925 ft | 395 kts | 193° |
| 2026-05-06 13:46 | 47.02254 | 11.85884 | 33398 ft | 392 kts | 193° |
| 2026-05-06 13:46 | 46.99572 | 11.85260 | 33836 ft | 388 kts | 196° |
| 2026-05-06 13:47 | 46.96967 | 11.84498 | 34125 ft | 386 kts | 197° |
| 2026-05-06 13:47 | 46.94348 | 11.83630 | 34369 ft | 386 kts | 198° |
| 2026-05-06 13:47 | 46.91726 | 11.82724 | 34564 ft | 388 kts | 198° |
| 2026-05-06 13:47 | 46.89097 | 11.81820 | 34839 ft | 388 kts | 198° |
| 2026-05-06 13:48 | 46.86461 | 11.80934 | 35053 ft | 390 kts | 197° |
| 2026-05-06 13:48 | 46.83807 | 11.80066 | 35301 ft | 391 kts | 197° |
| 2026-05-06 13:48 | 46.81143 | 11.79217 | 35521 ft | 392 kts | 197° |
| 2026-05-06 13:48 | 46.78471 | 11.78379 | 35766 ft | 393 kts | 196° |
| 2026-05-06 13:49 | 46.75796 | 11.77546 | 35948 ft | 395 kts | 196° |
| 2026-05-06 13:49 | 46.73105 | 11.76709 | 36113 ft | 395 kts | 196° |
| 2026-05-06 13:49 | 46.70422 | 11.75871 | 36240 ft | 395 kts | 196° |
| 2026-05-06 13:49 | 46.67732 | 11.75024 | 36390 ft | 397 kts | 196° |
| 2026-05-06 13:50 | 46.65025 | 11.74169 | 36547 ft | 399 kts | 196° |
| 2026-05-06 13:50 | 46.62343 | 11.73173 | 36747 ft | 396 kts | 204° |
| 2026-05-06 13:50 | 46.59845 | 11.71566 | 36852 ft | 393 kts | 212° |
| 2026-05-06 13:50 | 46.57573 | 11.69357 | 36879 ft | 393 kts | 218° |
| 2026-05-06 13:51 | 46.53165 | 11.64663 | 36868 ft | 393 kts | 217° |
| 2026-05-06 13:51 | 46.48740 | 11.59997 | 36878 ft | 394 kts | 217° |
| 2026-05-06 13:52 | 46.44313 | 11.55328 | 36876 ft | 393 kts | 217° |
| 2026-05-06 13:52 | 46.39884 | 11.50646 | 36898 ft | 396 kts | 217° |
| 2026-05-06 13:53 | 46.35430 | 11.45964 | 36906 ft | 395 kts | 217° |
| 2026-05-06 13:53 | 46.30981 | 11.41298 | 36907 ft | 395 kts | 217° |
| 2026-05-06 13:54 | 46.26536 | 11.36643 | 36905 ft | 395 kts | 217° |
| 2026-05-06 13:54 | 46.22112 | 11.31978 | 36901 ft | 394 kts | 217° |
| 2026-05-06 13:55 | 46.17701 | 11.27279 | 36909 ft | 394 kts | 217° |
| 2026-05-06 13:55 | 46.13291 | 11.22590 | 36958 ft | 394 kts | 217° |
| 2026-05-06 13:56 | 46.08873 | 11.17921 | 36980 ft | 394 kts | 217° |
| 2026-05-06 13:56 | 46.04458 | 11.13267 | 36961 ft | 393 kts | 217° |
| 2026-05-06 13:57 | 46.00053 | 11.08623 | 36945 ft | 392 kts | 217° |
| 2026-05-06 13:57 | 45.95656 | 11.03999 | 36930 ft | 391 kts | 217° |
| 2026-05-06 13:58 | 45.91263 | 10.99384 | 36914 ft | 391 kts | 217° |
| 2026-05-06 13:58 | 45.86867 | 10.94788 | 36924 ft | 391 kts | 217° |
| 2026-05-06 13:59 | 45.82476 | 10.90204 | 36896 ft | 390 kts | 217° |
| 2026-05-06 13:59 | 45.78087 | 10.85621 | 36913 ft | 391 kts | 217° |
| 2026-05-06 14:00 | 45.73694 | 10.81044 | 36907 ft | 390 kts | 217° |
| 2026-05-06 14:00 | 45.69311 | 10.76487 | 36907 ft | 389 kts | 217° |
| 2026-05-06 14:01 | 45.64926 | 10.71939 | 36905 ft | 389 kts | 217° |
| 2026-05-06 14:01 | 45.60545 | 10.67412 | 36904 ft | 388 kts | 217° |
| 2026-05-06 14:02 | 45.56168 | 10.62904 | 36899 ft | 388 kts | 217° |
| 2026-05-06 14:02 | 45.51795 | 10.58388 | 36887 ft | 388 kts | 217° |
| 2026-05-06 14:03 | 45.47425 | 10.53881 | 36909 ft | 388 kts | 217° |
| 2026-05-06 14:03 | 45.43054 | 10.49391 | 36901 ft | 387 kts | 217° |
| 2026-05-06 14:04 | 45.38690 | 10.44929 | 36887 ft | 386 kts | 217° |
| 2026-05-06 14:04 | 45.34336 | 10.40478 | 36886 ft | 385 kts | 217° |
| 2026-05-06 14:05 | 45.29984 | 10.36036 | 36835 ft | 385 kts | 217° |
| 2026-05-06 14:05 | 45.25631 | 10.31598 | 36844 ft | 386 kts | 217° |
| 2026-05-06 14:06 | 45.21269 | 10.27158 | 36860 ft | 386 kts | 217° |
| 2026-05-06 14:06 | 45.16898 | 10.22717 | 36860 ft | 387 kts | 217° |
| 2026-05-06 14:07 | 45.12524 | 10.18289 | 36863 ft | 387 kts | 217° |
| 2026-05-06 14:07 | 45.08142 | 10.13856 | 36836 ft | 387 kts | 217° |
| 2026-05-06 14:08 | 45.03751 | 10.09429 | 36842 ft | 388 kts | 217° |
| 2026-05-06 14:08 | 44.99355 | 10.04996 | 36853 ft | 388 kts | 217° |
| 2026-05-06 14:09 | 44.94953 | 10.00563 | 36843 ft | 389 kts | 217° |
| 2026-05-06 14:09 | 44.90551 | 9.96132 | 36853 ft | 389 kts | 217° |
| 2026-05-06 14:10 | 44.86150 | 9.91699 | 36870 ft | 388 kts | 217° |
| 2026-05-06 14:10 | 44.81747 | 9.87295 | 36862 ft | 388 kts | 217° |
| 2026-05-06 14:11 | 44.77351 | 9.82903 | 36867 ft | 387 kts | 217° |
| 2026-05-06 14:11 | 44.72965 | 9.78517 | 36856 ft | 387 kts | 217° |
| 2026-05-06 14:12 | 44.68583 | 9.74140 | 36861 ft | 386 kts | 217° |
| 2026-05-06 14:12 | 44.64198 | 9.69776 | 36866 ft | 386 kts | 217° |
| 2026-05-06 14:13 | 44.59813 | 9.65419 | 36874 ft | 385 kts | 217° |
| 2026-05-06 14:13 | 44.55425 | 9.61073 | 36847 ft | 387 kts | 217° |
| 2026-05-06 14:14 | 44.51020 | 9.56726 | 36851 ft | 388 kts | 217° |
| 2026-05-06 14:14 | 44.46607 | 9.52368 | 36853 ft | 388 kts | 217° |
| 2026-05-06 14:15 | 44.42183 | 9.48011 | 36866 ft | 389 kts | 217° |
| 2026-05-06 14:15 | 44.37755 | 9.43655 | 36900 ft | 390 kts | 217° |
| 2026-05-06 14:16 | 44.33314 | 9.39287 | 36896 ft | 390 kts | 216° |
| 2026-05-06 14:16 | 44.28864 | 9.34928 | 36898 ft | 391 kts | 216° |
| 2026-05-06 14:17 | 44.24411 | 9.30576 | 36901 ft | 391 kts | 217° |
| 2026-05-06 14:17 | 44.19958 | 9.26225 | 36900 ft | 391 kts | 217° |
| 2026-05-06 14:18 | 44.15501 | 9.21882 | 36897 ft | 391 kts | 217° |
| 2026-05-06 14:18 | 44.11768 | 9.18250 | 36899 ft | 391 kts | 217° |
| 2026-05-06 14:19 | 44.07307 | 9.13917 | 36900 ft | 391 kts | 217° |
| 2026-05-06 14:19 | 44.02849 | 9.09596 | 36896 ft | 390 kts | 217° |
| 2026-05-06 14:20 | 43.98405 | 9.05303 | 36908 ft | 387 kts | 217° |
| 2026-05-06 14:20 | 43.93985 | 9.01038 | 36905 ft | 387 kts | 217° |
| 2026-05-06 14:21 | 43.89563 | 8.96774 | 36909 ft | 387 kts | 217° |
| 2026-05-06 14:21 | 43.85148 | 8.92522 | 36877 ft | 386 kts | 217° |
| 2026-05-06 14:22 | 43.80736 | 8.88275 | 36885 ft | 386 kts | 217° |
| 2026-05-06 14:22 | 43.76317 | 8.84046 | 36893 ft | 386 kts | 217° |
| 2026-05-06 14:23 | 43.71897 | 8.79826 | 36900 ft | 386 kts | 217° |
| 2026-05-06 14:23 | 43.67482 | 8.75610 | 36866 ft | 386 kts | 217° |
| 2026-05-06 14:24 | 43.62751 | 8.72105 | 36879 ft | 392 kts | 201° |
| 2026-05-06 14:24 | 43.57285 | 8.71209 | 36894 ft | 402 kts | 186° |
| 2026-05-06 14:25 | 43.51768 | 8.70664 | 36888 ft | 389 kts | 205° |
| 2026-05-06 14:25 | 43.47109 | 8.67038 | 36873 ft | 385 kts | 213° |
| 2026-05-06 14:26 | 43.42498 | 8.63253 | 36884 ft | 387 kts | 213° |
| 2026-05-06 14:26 | 43.37873 | 8.59457 | 36887 ft | 387 kts | 213° |
| 2026-05-06 14:27 | 43.33316 | 8.55517 | 36897 ft | 386 kts | 219° |
| 2026-05-06 14:27 | 43.29244 | 8.50718 | 36881 ft | 386 kts | 224° |
| 2026-05-06 14:28 | 43.25373 | 8.45621 | 36893 ft | 386 kts | 224° |
| 2026-05-06 14:28 | 43.21444 | 8.40603 | 36901 ft | 386 kts | 223° |
| 2026-05-06 14:29 | 43.17442 | 8.35695 | 36915 ft | 386 kts | 223° |
| 2026-05-06 14:29 | 43.13419 | 8.30816 | 36939 ft | 386 kts | 223° |
| 2026-05-06 14:30 | 43.09407 | 8.25927 | 36918 ft | 386 kts | 223° |
| 2026-05-06 14:30 | 43.05396 | 8.21033 | 36927 ft | 386 kts | 223° |
| 2026-05-06 14:31 | 43.01386 | 8.16144 | 36928 ft | 386 kts | 223° |
| 2026-05-06 14:31 | 42.97369 | 8.11271 | 36934 ft | 386 kts | 223° |
| 2026-05-06 14:32 | 42.93351 | 8.06405 | 36921 ft | 386 kts | 223° |
| 2026-05-06 14:32 | 42.89395 | 8.01454 | 36923 ft | 385 kts | 232° |
| 2026-05-06 14:33 | 42.88157 | 7.98242 | 36921 ft | 388 kts | 253° |
| 2026-05-06 14:33 | 42.87997 | 7.94555 | 36939 ft | 398 kts | 275° |
| 2026-05-06 14:33 | 42.88969 | 7.90962 | 36918 ft | 416 kts | 296° |
| 2026-05-06 14:33 | 42.90969 | 7.88017 | 36903 ft | 436 kts | 317° |
| 2026-05-06 14:34 | 42.93753 | 7.86188 | 36893 ft | 457 kts | 339° |
| 2026-05-06 14:34 | 42.96969 | 7.85789 | 36906 ft | 476 kts | 1° |
| 2026-05-06 14:34 | 43.00217 | 7.86942 | 36916 ft | 493 kts | 22° |
| 2026-05-06 14:34 | 43.03090 | 7.89553 | 36918 ft | 502 kts | 44° |
| 2026-05-06 14:35 | 43.05222 | 7.93319 | 36919 ft | 503 kts | 63° |
| 2026-05-06 14:35 | 43.06542 | 7.97720 | 36881 ft | 499 kts | 79° |
| 2026-05-06 14:35 | 43.07032 | 8.02365 | 36915 ft | 491 kts | 95° |
| 2026-05-06 14:35 | 43.06722 | 8.06948 | 36910 ft | 479 kts | 109° |
| 2026-05-06 14:36 | 43.05668 | 8.11192 | 36921 ft | 466 kts | 124° |
| 2026-05-06 14:36 | 43.03988 | 8.14899 | 36920 ft | 453 kts | 137° |
| 2026-05-06 14:36 | 43.01821 | 8.17925 | 36919 ft | 439 kts | 149° |
| 2026-05-06 14:36 | 42.99306 | 8.20173 | 36915 ft | 426 kts | 161° |
| 2026-05-06 14:37 | 42.96586 | 8.21616 | 36919 ft | 415 kts | 173° |
| 2026-05-06 14:37 | 42.93781 | 8.22261 | 36916 ft | 404 kts | 183° |
| 2026-05-06 14:37 | 42.88339 | 8.21315 | 36908 ft | 390 kts | 203° |
| 2026-05-06 14:38 | 42.83675 | 8.17774 | 36907 ft | 383 kts | 222° |
| 2026-05-06 14:38 | 42.80006 | 8.12525 | 36914 ft | 383 kts | 228° |
| 2026-05-06 14:39 | 42.76422 | 8.07139 | 36917 ft | 384 kts | 228° |
| 2026-05-06 14:39 | 42.72820 | 8.01770 | 36898 ft | 384 kts | 228° |
| 2026-05-06 14:40 | 42.69207 | 7.96390 | 36960 ft | 385 kts | 228° |
| 2026-05-06 14:40 | 42.65593 | 7.91010 | 36956 ft | 385 kts | 228° |
| 2026-05-06 14:41 | 42.61984 | 7.85630 | 36946 ft | 385 kts | 228° |
| 2026-05-06 14:41 | 42.58366 | 7.80259 | 36951 ft | 385 kts | 228° |
| 2026-05-06 14:42 | 42.54743 | 7.74901 | 36950 ft | 385 kts | 228° |
| 2026-05-06 14:42 | 42.51116 | 7.69547 | 36949 ft | 385 kts | 228° |
| 2026-05-06 14:43 | 42.47490 | 7.64198 | 36951 ft | 385 kts | 228° |
| 2026-05-06 14:43 | 42.43860 | 7.58853 | 36969 ft | 385 kts | 228° |
| 2026-05-06 14:44 | 42.40228 | 7.53512 | 36972 ft | 386 kts | 228° |
| 2026-05-06 14:45 | 42.34769 | 7.45506 | 36937 ft | 386 kts | 228° |
| 2026-05-06 14:45 | 42.31128 | 7.40182 | 36945 ft | 386 kts | 228° |
| 2026-05-06 14:46 | 42.27481 | 7.34862 | 36950 ft | 386 kts | 228° |
| 2026-05-06 14:46 | 42.23833 | 7.29548 | 36953 ft | 386 kts | 228° |
| 2026-05-06 14:47 | 42.20182 | 7.24236 | 36962 ft | 386 kts | 227° |
| 2026-05-06 14:47 | 42.16527 | 7.18923 | 36951 ft | 386 kts | 227° |
| 2026-05-06 14:48 | 42.12871 | 7.13612 | 36961 ft | 386 kts | 227° |
| 2026-05-06 14:48 | 42.09207 | 7.08313 | 36966 ft | 386 kts | 227° |
| 2026-05-06 14:49 | 42.05547 | 7.03020 | 36967 ft | 386 kts | 227° |
| 2026-05-06 14:49 | 42.01873 | 6.97751 | 36967 ft | 386 kts | 226° |
| 2026-05-06 14:50 | 41.97979 | 6.92768 | 36944 ft | 387 kts | 223° |
| 2026-05-06 14:50 | 41.93951 | 6.87972 | 36952 ft | 387 kts | 223° |
| 2026-05-06 14:51 | 41.89938 | 6.83171 | 36983 ft | 386 kts | 224° |
| 2026-05-06 14:51 | 41.85957 | 6.78316 | 36974 ft | 386 kts | 224° |
| 2026-05-06 14:52 | 41.81986 | 6.73461 | 36969 ft | 386 kts | 224° |
| 2026-05-06 14:52 | 41.78011 | 6.68606 | 36937 ft | 387 kts | 224° |
| 2026-05-06 14:53 | 41.74029 | 6.63761 | 36948 ft | 387 kts | 224° |
| 2026-05-06 14:53 | 41.70020 | 6.58895 | 36950 ft | 387 kts | 224° |
| 2026-05-06 14:54 | 41.66027 | 6.54068 | 36956 ft | 387 kts | 223° |
| 2026-05-06 14:54 | 41.62059 | 6.49273 | 36958 ft | 387 kts | 224° |
| 2026-05-06 14:55 | 41.58071 | 6.44445 | 36972 ft | 387 kts | 224° |
| 2026-05-06 14:55 | 41.54047 | 6.39598 | 36970 ft | 387 kts | 224° |
| 2026-05-06 14:56 | 41.50076 | 6.34817 | 36965 ft | 387 kts | 224° |
| 2026-05-06 14:56 | 41.46080 | 6.30011 | 36964 ft | 387 kts | 224° |
| 2026-05-06 14:57 | 41.42728 | 6.25995 | 36962 ft | 387 kts | 224° |
| 2026-05-06 14:57 | 41.38733 | 6.21201 | 36924 ft | 386 kts | 224° |
| 2026-05-06 14:58 | 41.34728 | 6.16426 | 36934 ft | 387 kts | 224° |
| 2026-05-06 14:58 | 41.30716 | 6.11652 | 36938 ft | 387 kts | 223° |
| 2026-05-06 14:59 | 41.26701 | 6.06875 | 36972 ft | 387 kts | 224° |
| 2026-05-06 14:59 | 41.22693 | 6.02097 | 36975 ft | 387 kts | 224° |
| 2026-05-06 15:00 | 41.18673 | 5.97338 | 36934 ft | 387 kts | 224° |
| 2026-05-06 15:00 | 41.14660 | 5.92576 | 36943 ft | 387 kts | 224° |
| 2026-05-06 15:01 | 41.10638 | 5.87820 | 36946 ft | 387 kts | 224° |
| 2026-05-06 15:01 | 41.06613 | 5.83068 | 36955 ft | 388 kts | 224° |
| 2026-05-06 15:02 | 41.02590 | 5.78315 | 36952 ft | 388 kts | 224° |
| 2026-05-06 15:02 | 40.98554 | 5.73575 | 36927 ft | 388 kts | 223° |
| 2026-05-06 15:03 | 40.94599 | 5.68724 | 36952 ft | 387 kts | 231° |
| 2026-05-06 15:03 | 40.91450 | 5.62979 | 36968 ft | 386 kts | 235° |
| 2026-05-06 15:04 | 40.88347 | 5.57179 | 36629 ft | 386 kts | 235° |
| 2026-05-06 15:04 | 40.86795 | 5.54284 | 36371 ft | 386 kts | 235° |
| 2026-05-06 15:04 | 40.85240 | 5.51389 | 36113 ft | 386 kts | 235° |
| 2026-05-06 15:04 | 40.83683 | 5.48497 | 35854 ft | 387 kts | 235° |
| 2026-05-06 15:05 | 40.82125 | 5.45605 | 35612 ft | 387 kts | 235° |
| 2026-05-06 15:05 | 40.80565 | 5.42712 | 35368 ft | 387 kts | 235° |
| 2026-05-06 15:05 | 40.79003 | 5.39817 | 35115 ft | 387 kts | 235° |
| 2026-05-06 15:05 | 40.77438 | 5.36916 | 34843 ft | 389 kts | 235° |
| 2026-05-06 15:06 | 40.75868 | 5.34002 | 34601 ft | 390 kts | 235° |
| 2026-05-06 15:06 | 40.74300 | 5.31090 | 34389 ft | 389 kts | 235° |
| 2026-05-06 15:06 | 40.72732 | 5.28185 | 34147 ft | 389 kts | 235° |
| 2026-05-06 15:06 | 40.71162 | 5.25283 | 33908 ft | 389 kts | 235° |
| 2026-05-06 15:07 | 40.69602 | 5.22401 | 33711 ft | 383 kts | 235° |
| 2026-05-06 15:07 | 40.68044 | 5.19527 | 33448 ft | 387 kts | 235° |
| 2026-05-06 15:07 | 40.66470 | 5.16633 | 33178 ft | 390 kts | 234° |
| 2026-05-06 15:07 | 40.64890 | 5.13729 | 32911 ft | 391 kts | 234° |
| 2026-05-06 15:08 | 40.63307 | 5.10821 | 32649 ft | 390 kts | 234° |
| 2026-05-06 15:08 | 40.61728 | 5.07927 | 32387 ft | 389 kts | 234° |
| 2026-05-06 15:08 | 40.60152 | 5.05043 | 32126 ft | 387 kts | 234° |
| 2026-05-06 15:08 | 40.58583 | 5.02165 | 31873 ft | 386 kts | 234° |
| 2026-05-06 15:09 | 40.57021 | 4.99301 | 31617 ft | 385 kts | 234° |
| 2026-05-06 15:09 | 40.55465 | 4.96445 | 31368 ft | 383 kts | 234° |
| 2026-05-06 15:09 | 40.53916 | 4.93603 | 31124 ft | 381 kts | 235° |
| 2026-05-06 15:09 | 40.52373 | 4.90783 | 30942 ft | 379 kts | 234° |
| 2026-05-06 15:10 | 40.50833 | 4.87973 | 30961 ft | 379 kts | 234° |
| 2026-05-06 15:10 | 40.47745 | 4.82353 | 30961 ft | 379 kts | 234° |
| 2026-05-06 15:11 | 40.44656 | 4.76733 | 30958 ft | 379 kts | 234° |
| 2026-05-06 15:11 | 40.41566 | 4.71119 | 30959 ft | 379 kts | 234° |
| 2026-05-06 15:12 | 40.38473 | 4.65508 | 30959 ft | 379 kts | 234° |
| 2026-05-06 15:12 | 40.35369 | 4.59882 | 30956 ft | 382 kts | 234° |
| 2026-05-06 15:13 | 40.32230 | 4.54212 | 30957 ft | 381 kts | 234° |
| 2026-05-06 15:13 | 40.29140 | 4.48634 | 30956 ft | 381 kts | 234° |
| 2026-05-06 15:14 | 40.26026 | 4.43029 | 30956 ft | 381 kts | 234° |
| 2026-05-06 15:14 | 40.22907 | 4.37433 | 30956 ft | 381 kts | 234° |
| 2026-05-06 15:15 | 40.19786 | 4.31832 | 30955 ft | 381 kts | 234° |
| 2026-05-06 15:15 | 40.16653 | 4.26199 | 30943 ft | 381 kts | 234° |
| 2026-05-06 15:16 | 40.13519 | 4.20595 | 30955 ft | 382 kts | 234° |
| 2026-05-06 15:16 | 40.10376 | 4.14991 | 30389 ft | 379 kts | 234° |
| 2026-05-06 15:16 | 40.08827 | 4.12241 | 29728 ft | 377 kts | 234° |
| 2026-05-06 15:17 | 40.07278 | 4.09492 | 29041 ft | 374 kts | 234° |
| 2026-05-06 15:17 | 40.05743 | 4.06768 | 28402 ft | 371 kts | 234° |
| 2026-05-06 15:17 | 40.04222 | 4.04064 | 27781 ft | 368 kts | 234° |
| 2026-05-06 15:17 | 40.02713 | 4.01386 | 27169 ft | 365 kts | 234° |
| 2026-05-06 15:18 | 40.01217 | 3.98730 | 26582 ft | 362 kts | 234° |
| 2026-05-06 15:18 | 39.99733 | 3.96095 | 25973 ft | 359 kts | 234° |
| 2026-05-06 15:18 | 39.98257 | 3.93472 | 25396 ft | 357 kts | 234° |
| 2026-05-06 15:18 | 39.96791 | 3.90875 | 24826 ft | 355 kts | 234° |
| 2026-05-06 15:19 | 39.95331 | 3.88295 | 24236 ft | 353 kts | 234° |
| 2026-05-06 15:19 | 39.93879 | 3.85733 | 23683 ft | 351 kts | 234° |
| 2026-05-06 15:19 | 39.92431 | 3.83183 | 23087 ft | 349 kts | 234° |
| 2026-05-06 15:19 | 39.90995 | 3.80650 | 22488 ft | 347 kts | 234° |
| 2026-05-06 15:20 | 39.89567 | 3.78133 | 21906 ft | 345 kts | 234° |
| 2026-05-06 15:20 | 39.88146 | 3.75632 | 21354 ft | 343 kts | 234° |
| 2026-05-06 15:20 | 39.86734 | 3.73148 | 20816 ft | 341 kts | 234° |
| 2026-05-06 15:20 | 39.85329 | 3.70675 | 20289 ft | 339 kts | 234° |
| 2026-05-06 15:21 | 39.83929 | 3.68216 | 19778 ft | 337 kts | 234° |
| 2026-05-06 15:21 | 39.82534 | 3.65774 | 19281 ft | 336 kts | 234° |
| 2026-05-06 15:21 | 39.81145 | 3.63341 | 18789 ft | 334 kts | 234° |
| 2026-05-06 15:21 | 39.79762 | 3.60918 | 18313 ft | 333 kts | 234° |
| 2026-05-06 15:22 | 39.78386 | 3.58507 | 17774 ft | 331 kts | 234° |
| 2026-05-06 15:22 | 39.77016 | 3.56108 | 17274 ft | 330 kts | 234° |
| 2026-05-06 15:22 | 39.75654 | 3.53720 | 16778 ft | 328 kts | 234° |
| 2026-05-06 15:22 | 39.74299 | 3.51345 | 16259 ft | 327 kts | 234° |
| 2026-05-06 15:23 | 39.72946 | 3.48978 | 15768 ft | 326 kts | 234° |
| 2026-05-06 15:23 | 39.71596 | 3.46622 | 15298 ft | 325 kts | 234° |
| 2026-05-06 15:23 | 39.70253 | 3.44274 | 14847 ft | 323 kts | 236° |
| 2026-05-06 15:23 | 39.69122 | 3.41773 | 14387 ft | 321 kts | 244° |
| 2026-05-06 15:24 | 39.68133 | 3.39187 | 13933 ft | 320 kts | 244° |
| 2026-05-06 15:24 | 39.67144 | 3.36609 | 13461 ft | 318 kts | 244° |
| 2026-05-06 15:24 | 39.66157 | 3.34046 | 12971 ft | 317 kts | 244° |
| 2026-05-06 15:24 | 39.65171 | 3.31490 | 12474 ft | 316 kts | 244° |
| 2026-05-06 15:25 | 39.64188 | 3.28947 | 11989 ft | 315 kts | 244° |
| 2026-05-06 15:25 | 39.63207 | 3.26413 | 11522 ft | 314 kts | 244° |
| 2026-05-06 15:25 | 39.62230 | 3.23888 | 11051 ft | 313 kts | 244° |
| 2026-05-06 15:25 | 39.61264 | 3.21389 | 10800 ft | 305 kts | 244° |
| 2026-05-06 15:26 | 39.60333 | 3.18982 | 10671 ft | 293 kts | 244° |
| 2026-05-06 15:26 | 39.59435 | 3.16665 | 10534 ft | 283 kts | 244° |
| 2026-05-06 15:26 | 39.58559 | 3.14406 | 10254 ft | 279 kts | 244° |
| 2026-05-06 15:26 | 39.57690 | 3.12163 | 9902 ft | 278 kts | 244° |
| 2026-05-06 15:27 | 39.56824 | 3.09931 | 9508 ft | 277 kts | 244° |
| 2026-05-06 15:27 | 39.55959 | 3.07703 | 9106 ft | 276 kts | 244° |
| 2026-05-06 15:27 | 39.55100 | 3.05484 | 8704 ft | 275 kts | 244° |
| 2026-05-06 15:27 | 39.54244 | 3.03281 | 8338 ft | 273 kts | 244° |
| 2026-05-06 15:28 | 39.53392 | 3.01091 | 7928 ft | 272 kts | 244° |
| 2026-05-06 15:28 | 39.52538 | 2.98899 | 7568 ft | 272 kts | 244° |
| 2026-05-06 15:28 | 39.51686 | 2.96713 | 7216 ft | 272 kts | 244° |
| 2026-05-06 15:28 | 39.50836 | 2.94534 | 6860 ft | 270 kts | 244° |
| 2026-05-06 15:29 | 39.49992 | 2.92367 | 6478 ft | 269 kts | 244° |
| 2026-05-06 15:29 | 39.49148 | 2.90205 | 6070 ft | 268 kts | 244° |
| 2026-05-06 15:29 | 39.48308 | 2.88055 | 5641 ft | 267 kts | 244° |
| 2026-05-06 15:29 | 39.47468 | 2.85910 | 5207 ft | 267 kts | 244° |
| 2026-05-06 15:30 | 39.46628 | 2.83768 | 4937 ft | 268 kts | 244° |
| 2026-05-06 15:30 | 39.45781 | 2.81609 | 4686 ft | 269 kts | 244° |
| 2026-05-06 15:30 | 39.44933 | 2.79450 | 4437 ft | 269 kts | 243° |
| 2026-05-06 15:30 | 39.44087 | 2.77293 | 4182 ft | 268 kts | 244° |
| 2026-05-06 15:31 | 39.43470 | 2.75028 | 3930 ft | 267 kts | 259° |
| 2026-05-06 15:31 | 39.43233 | 2.72646 | 3682 ft | 267 kts | 264° |
| 2026-05-06 15:31 | 39.43024 | 2.70258 | 3430 ft | 267 kts | 264° |
| 2026-05-06 15:32 | 39.42587 | 2.65506 | 3020 ft | 266 kts | 263° |
| 2026-05-06 15:32 | 39.42367 | 2.63136 | 3002 ft | 265 kts | 263° |
| 2026-05-06 15:32 | 39.42148 | 2.60767 | 3005 ft | 265 kts | 263° |
| 2026-05-06 15:32 | 39.41929 | 2.58397 | 3004 ft | 266 kts | 263° |
| 2026-05-06 15:33 | 39.41713 | 2.56041 | 2942 ft | 258 kts | 263° |
| 2026-05-06 15:33 | 39.41511 | 2.53804 | 2863 ft | 243 kts | 263° |
| 2026-05-06 15:33 | 39.41602 | 2.51692 | 2781 ft | 234 kts | 293° |
| 2026-05-06 15:33 | 39.42632 | 2.50148 | 2708 ft | 230 kts | 334° |
| 2026-05-06 15:34 | 39.44170 | 2.49856 | 2635 ft | 227 kts | 15° |
| 2026-05-06 15:34 | 39.45459 | 2.50946 | 2549 ft | 225 kts | 57° |
| 2026-05-06 15:34 | 39.46099 | 2.52782 | 2487 ft | 222 kts | 67° |
| 2026-05-06 15:34 | 39.46823 | 2.54500 | 2394 ft | 214 kts | 59° |
| 2026-05-06 15:35 | 39.47352 | 2.55596 | 2329 ft | 211 kts | 59° |
| 2026-05-06 15:35 | 39.48109 | 2.57167 | 2294 ft | 199 kts | 59° |
| 2026-05-06 15:35 | 39.48818 | 2.58650 | 2207 ft | 189 kts | 59° |
| 2026-05-06 15:35 | 39.49494 | 2.60072 | 1979 ft | 182 kts | 59° |
| 2026-05-06 15:36 | 39.50151 | 2.61453 | 1744 ft | 178 kts | 59° |
| 2026-05-06 15:36 | 39.50786 | 2.62790 | 1513 ft | 170 kts | 59° |
| 2026-05-06 15:36 | 39.51392 | 2.64065 | 1314 ft | 159 kts | 59° |
| 2026-05-06 15:36 | 39.51944 | 2.65227 | 1094 ft | 146 kts | 59° |
| 2026-05-06 15:37 | 39.52466 | 2.66320 | 904 ft | 139 kts | 59° |
| 2026-05-06 15:37 | 39.52967 | 2.67377 | 752 ft | 136 kts | 58° |
| 2026-05-06 15:37 | 39.53457 | 2.68409 | 574 ft | 133 kts | 59° |
| 2026-05-06 15:37 | 39.53939 | 2.69426 | 354 ft | 132 kts | 59° |
| 2026-05-06 15:38 | 39.54412 | 2.70425 | 202 ft | 129 kts | 59° |
| 2026-05-06 15:38 | 39.54885 | 2.71422 | 43 ft | 128 kts | 59° |
| 2026-05-06 15:38 | 39.55243 | 2.72181 | 38 ft | 66 kts | 58° |
| 2026-05-06 15:38 | 39.55438 | 2.72596 | 37 ft | 39 kts | 58° |
| 2026-05-06 15:39 | 39.55496 | 2.72817 | 38 ft | 21 kts | 89° |
| 2026-05-06 15:39 | 39.55498 | 2.72966 | 38 ft | 11 kts | 89° |
| 2026-05-06 15:39 | 39.55499 | 2.73038 | 38 ft | 4 kts | 89° |
| 2026-05-06 15:39 | 39.55499 | 2.73044 | 38 ft | 0 kts | 89° |
| 2026-05-06 15:40 | 39.55499 | 2.73050 | 38 ft | 4 kts | 89° |
| 2026-05-06 15:40 | 39.55502 | 2.73151 | 38 ft | 18 kts | 83° |
| 2026-05-06 15:40 | 39.55563 | 2.73306 | 38 ft | 20 kts | 59° |
| 2026-05-06 15:40 | 39.55627 | 2.73451 | 38 ft | 12 kts | 73° |
| 2026-05-06 15:41 | 39.55566 | 2.73543 | 38 ft | 21 kts | 149° |
| 2026-05-06 15:41 | 39.55430 | 2.73650 | 38 ft | 24 kts | 149° |
| 2026-05-06 15:41 | 39.55282 | 2.73767 | 37 ft | 23 kts | 149° |
| 2026-05-06 15:41 | 39.55201 | 2.73824 | 38 ft | 9 kts | 175° |
| 2026-05-06 15:42 | 39.55166 | 2.73771 | 38 ft | 9 kts | 270° |
| 2026-05-06 15:42 | 39.55180 | 2.73702 | 38 ft | 8 kts | 259° |
| 2026-05-06 15:42 | 39.55154 | 2.73644 | 38 ft | 7 kts | 237° |
| 2026-05-06 15:42 | 39.55112 | 2.73624 | 38 ft | 7 kts | 189° |
| 2026-05-06 15:43 | 39.55087 | 2.73618 | 38 ft | 0 kts | 189° |